createdAt,value
2017-10-14T00:00:36.412Z,0
2017-10-14T00:01:36.711Z,0
2017-10-14T00:02:36.686Z,0
2017-10-14T00:03:36.349Z,0
2017-10-14T00:04:36.645Z,0
2017-10-14T00:05:36.627Z,0
2017-10-14T00:06:36.605Z,0
2017-10-14T00:07:36.261Z,0
2017-10-14T00:08:36.565Z,0
2017-10-14T00:09:36.539Z,0
2017-10-14T00:10:36.514Z,0
2017-10-14T00:11:36.496Z,0
2017-10-14T00:12:36.469Z,0
2017-10-14T00:13:36.132Z,0
2017-10-14T00:14:36.434Z,0
2017-10-14T00:15:36.411Z,0
2017-10-14T00:16:36.381Z,0
2017-10-14T00:17:36.051Z,0
2017-10-14T00:18:36.350Z,0
2017-10-14T00:19:36.322Z,0
2017-10-14T00:20:36.303Z,0
2017-10-14T00:21:36.272Z,0
2017-10-14T00:22:35.951Z,0
2017-10-14T00:23:36.274Z,0
2017-10-14T00:24:36.215Z,0
2017-10-14T00:25:35.875Z,0
2017-10-14T00:26:36.182Z,0
2017-10-14T00:27:36.147Z,0
2017-10-14T00:28:36.127Z,0
2017-10-14T00:29:36.111Z,0
2017-10-14T00:30:36.093Z,0
2017-10-14T00:31:36.078Z,0
2017-10-14T00:32:36.049Z,0
2017-10-14T00:33:36.020Z,0
2017-10-14T00:34:35.991Z,0
2017-10-14T00:35:35.663Z,0
2017-10-14T00:36:35.966Z,0
2017-10-14T00:37:35.612Z,0
2017-10-14T00:38:35.904Z,0
2017-10-14T00:39:35.890Z,0
2017-10-14T00:40:35.552Z,0
2017-10-14T00:41:35.840Z,0
2017-10-14T00:42:35.813Z,0
2017-10-14T00:43:35.807Z,0
2017-10-14T00:44:35.778Z,0
2017-10-14T00:45:35.470Z,0
2017-10-14T00:46:35.417Z,0
2017-10-14T00:47:35.720Z,0
2017-10-14T00:48:35.696Z,0
2017-10-14T00:49:35.682Z,0
2017-10-14T00:50:35.679Z,0
2017-10-14T00:51:35.307Z,0
2017-10-14T00:52:35.608Z,0
2017-10-14T00:53:35.583Z,0
2017-10-14T00:54:35.574Z,0
2017-10-14T00:55:35.552Z,0
2017-10-14T00:56:35.523Z,0
2017-10-14T00:57:35.493Z,0
2017-10-14T00:58:35.469Z,0
2017-10-14T00:59:35.451Z,0
2017-10-14T01:00:35.434Z,0
2017-10-14T01:01:35.411Z,0
2017-10-14T01:02:35.393Z,0
2017-10-14T01:03:35.367Z,0
2017-10-14T01:04:35.356Z,0
2017-10-14T01:05:35.322Z,0
2017-10-14T01:06:35.308Z,0
2017-10-14T01:07:35.282Z,0
2017-10-14T01:08:35.256Z,0
2017-10-14T01:09:35.241Z,0
2017-10-14T01:10:35.210Z,0
2017-10-14T01:11:35.198Z,0
2017-10-14T01:12:35.174Z,0
2017-10-14T01:13:35.149Z,0
2017-10-14T01:14:35.131Z,0
2017-10-14T01:15:35.104Z,0
2017-10-14T01:16:35.075Z,0
2017-10-14T01:17:35.056Z,0
2017-10-14T01:18:35.028Z,0
2017-10-14T01:19:35.017Z,0
2017-10-14T01:20:35.027Z,0
2017-10-14T01:21:34.977Z,0
2017-10-14T01:22:34.959Z,0
2017-10-14T01:23:34.928Z,0
2017-10-14T01:24:34.915Z,0
2017-10-14T01:25:34.919Z,0
2017-10-14T01:26:34.876Z,0
2017-10-14T01:27:34.841Z,0
2017-10-14T01:28:34.824Z,0
2017-10-14T01:29:34.799Z,0
2017-10-14T01:30:34.464Z,0
2017-10-14T01:31:34.446Z,0
2017-10-14T01:32:34.739Z,0
2017-10-14T01:33:34.708Z,0
2017-10-14T01:34:34.693Z,0
2017-10-14T01:35:34.671Z,0
2017-10-14T01:36:34.644Z,0
2017-10-14T01:37:34.322Z,0
2017-10-14T01:38:34.592Z,0
2017-10-14T01:39:34.603Z,0
2017-10-14T01:40:34.563Z,0
2017-10-14T01:41:34.557Z,0
2017-10-14T01:42:34.205Z,0
2017-10-14T01:43:34.506Z,0
2017-10-14T01:44:34.480Z,0
2017-10-14T01:45:34.469Z,0
2017-10-14T01:46:34.434Z,0
2017-10-14T01:47:34.109Z,0
2017-10-14T01:48:34.386Z,0
2017-10-14T01:49:34.368Z,0
2017-10-14T01:50:34.344Z,0
2017-10-14T01:51:34.324Z,0
2017-10-14T01:52:34.301Z,0
2017-10-14T01:53:33.968Z,0
2017-10-14T01:54:33.941Z,0
2017-10-14T01:55:34.231Z,0
2017-10-14T01:56:34.262Z,0
2017-10-14T01:57:33.867Z,0
2017-10-14T01:58:34.174Z,0
2017-10-14T01:59:34.151Z,0
2017-10-14T02:00:34.142Z,0
2017-10-14T02:01:34.147Z,0
2017-10-14T02:02:34.088Z,0
2017-10-14T02:03:34.071Z,0
2017-10-14T02:04:34.041Z,0
2017-10-14T02:05:34.023Z,0
2017-10-14T02:06:34.010Z,0
2017-10-14T02:07:33.971Z,0
2017-10-14T02:08:33.646Z,0
2017-10-14T02:09:33.938Z,0
2017-10-14T02:10:33.927Z,0
2017-10-14T02:11:33.888Z,0
2017-10-14T02:12:33.867Z,0
2017-10-14T02:13:33.852Z,0
2017-10-14T02:14:33.498Z,0
2017-10-14T02:15:33.793Z,0
2017-10-14T02:16:33.779Z,0
2017-10-14T02:17:33.762Z,0
2017-10-14T02:18:33.413Z,0
2017-10-14T02:19:33.394Z,0
2017-10-14T02:20:33.697Z,0
2017-10-14T02:21:33.680Z,0
2017-10-14T02:22:33.643Z,0
2017-10-14T02:23:32.999Z,0
2017-10-14T02:24:33.607Z,0
2017-10-14T02:25:33.581Z,0
2017-10-14T02:26:33.243Z,0
2017-10-14T02:27:33.264Z,0
2017-10-14T02:28:32.876Z,0
2017-10-14T02:29:33.493Z,0
2017-10-14T02:30:33.481Z,0
2017-10-14T02:31:33.462Z,0
2017-10-14T02:32:33.426Z,0
2017-10-14T02:33:33.412Z,0
2017-10-14T02:34:33.402Z,0
2017-10-14T02:35:33.047Z,0
2017-10-14T02:36:33.345Z,0
2017-10-14T02:37:33.331Z,0
2017-10-14T02:38:32.985Z,0
2017-10-14T02:39:33.279Z,0
2017-10-14T02:40:33.270Z,0
2017-10-14T02:41:33.240Z,0
2017-10-14T02:42:33.227Z,0
2017-10-14T02:43:32.868Z,0
2017-10-14T02:44:32.852Z,0
2017-10-14T02:45:33.145Z,0
2017-10-14T02:46:33.127Z,0
2017-10-14T02:47:33.104Z,0
2017-10-14T02:48:33.082Z,0
2017-10-14T02:49:33.066Z,0
2017-10-14T02:50:32.715Z,0
2017-10-14T02:51:33.014Z,0
2017-10-14T02:52:33.018Z,0
2017-10-14T02:53:32.973Z,0
2017-10-14T02:54:32.965Z,0
2017-10-14T02:55:32.927Z,0
2017-10-14T02:56:33.114Z,0
2017-10-14T02:57:32.566Z,0
2017-10-14T02:58:32.872Z,0
2017-10-14T02:59:32.861Z,0
2017-10-14T03:00:32.842Z,0
2017-10-14T03:01:32.803Z,0
2017-10-14T03:02:32.786Z,0
2017-10-14T03:03:32.760Z,0
2017-10-14T03:04:32.726Z,0
2017-10-14T03:05:32.713Z,0
2017-10-14T03:06:32.699Z,0
2017-10-14T03:07:32.670Z,0
2017-10-14T03:08:32.323Z,0
2017-10-14T03:09:32.620Z,0
2017-10-14T03:10:32.594Z,0
2017-10-14T03:11:32.585Z,0
2017-10-14T03:12:32.240Z,0
2017-10-14T03:13:32.533Z,0
2017-10-14T03:14:32.509Z,0
2017-10-14T03:15:32.503Z,0
2017-10-14T03:16:32.489Z,0
2017-10-14T03:17:32.446Z,0
2017-10-14T03:18:32.436Z,0
2017-10-14T03:19:32.081Z,0
2017-10-14T03:20:32.382Z,0
2017-10-14T03:21:32.355Z,0
2017-10-14T03:22:32.343Z,0
2017-10-14T03:23:32.312Z,0
2017-10-14T03:24:32.301Z,0
2017-10-14T03:25:32.262Z,0
2017-10-14T03:26:32.248Z,0
2017-10-14T03:27:32.220Z,0
2017-10-14T03:28:31.882Z,0
2017-10-14T03:29:32.185Z,0
2017-10-14T03:30:32.172Z,0
2017-10-14T03:31:32.139Z,0
2017-10-14T03:32:32.123Z,0
2017-10-14T03:33:32.100Z,0
2017-10-14T03:34:32.077Z,0
2017-10-14T03:35:32.043Z,0
2017-10-14T03:36:32.027Z,0
2017-10-14T03:37:32.007Z,0
2017-10-14T03:38:31.980Z,0
2017-10-14T03:39:31.961Z,0
2017-10-14T03:40:31.624Z,0
2017-10-14T03:41:31.913Z,0
2017-10-14T03:42:31.914Z,0
2017-10-14T03:43:31.884Z,0
2017-10-14T03:44:31.871Z,0
2017-10-14T03:45:31.833Z,0
2017-10-14T03:46:31.490Z,0
2017-10-14T03:47:31.782Z,0
2017-10-14T03:48:31.775Z,0
2017-10-14T03:49:31.740Z,0
2017-10-14T03:50:31.742Z,0
2017-10-14T03:51:31.703Z,0
2017-10-14T03:52:31.679Z,0
2017-10-14T03:53:31.654Z,0
2017-10-14T03:54:31.637Z,0
2017-10-14T03:55:31.292Z,0
2017-10-14T03:56:31.597Z,0
2017-10-14T03:57:31.574Z,0
2017-10-14T03:58:31.548Z,0
2017-10-14T03:59:31.521Z,0
2017-10-14T04:00:31.509Z,0
2017-10-14T04:01:31.477Z,0
2017-10-14T04:02:31.453Z,0
2017-10-14T04:03:31.118Z,0
2017-10-14T04:04:31.411Z,0
2017-10-14T04:05:31.394Z,0
2017-10-14T04:06:31.376Z,0
2017-10-14T04:07:31.353Z,0
2017-10-14T04:08:31.367Z,0
2017-10-14T04:09:31.308Z,0
2017-10-14T04:10:31.279Z,0
2017-10-14T04:11:31.264Z,0
2017-10-14T04:12:30.915Z,0
2017-10-14T04:13:31.220Z,0
2017-10-14T04:14:31.194Z,0
2017-10-14T04:15:31.180Z,0
2017-10-14T04:16:31.150Z,0
2017-10-14T04:17:31.131Z,0
2017-10-14T04:18:31.105Z,0
2017-10-14T04:19:31.088Z,0
2017-10-14T04:20:31.063Z,0
2017-10-14T04:21:31.032Z,0
2017-10-14T04:22:31.015Z,0
2017-10-14T04:23:30.678Z,0
2017-10-14T04:24:30.976Z,0
2017-10-14T04:25:30.953Z,0
2017-10-14T04:26:30.945Z,0
2017-10-14T04:27:30.905Z,0
2017-10-14T04:28:30.890Z,0
2017-10-14T04:29:30.879Z,0
2017-10-14T04:30:30.841Z,0
2017-10-14T04:31:30.819Z,0
2017-10-14T04:32:30.799Z,0
2017-10-14T04:33:30.773Z,0
2017-10-14T04:34:30.757Z,0
2017-10-14T04:35:30.415Z,0
2017-10-14T04:36:30.714Z,0
2017-10-14T04:37:30.699Z,0
2017-10-14T04:38:30.346Z,0
2017-10-14T04:39:30.650Z,0
2017-10-14T04:40:30.306Z,0
2017-10-14T04:41:30.606Z,0
2017-10-14T04:42:30.586Z,0
2017-10-14T04:43:30.552Z,0
2017-10-14T04:44:30.532Z,0
2017-10-14T04:45:30.517Z,0
2017-10-14T04:46:30.494Z,0
2017-10-14T04:47:30.463Z,0
2017-10-14T04:48:30.451Z,0
2017-10-14T04:49:30.102Z,0
2017-10-14T04:50:30.409Z,0
2017-10-14T04:51:30.060Z,0
2017-10-14T04:52:30.047Z,0
2017-10-14T04:53:30.334Z,0
2017-10-14T04:54:30.313Z,0
2017-10-14T04:55:30.293Z,0
2017-10-14T04:56:30.276Z,0
2017-10-14T04:57:30.244Z,0
2017-10-14T04:58:30.217Z,0
2017-10-14T04:59:30.197Z,0
2017-10-14T05:00:30.173Z,0
2017-10-14T05:01:30.158Z,0
2017-10-14T05:02:30.135Z,0
2017-10-14T05:03:30.115Z,0
2017-10-14T05:04:30.100Z,0
2017-10-14T05:05:29.771Z,0
2017-10-14T05:06:30.052Z,0
2017-10-14T05:07:30.028Z,0
2017-10-14T05:08:30.010Z,0
2017-10-14T05:09:29.658Z,0
2017-10-14T05:10:29.640Z,0
2017-10-14T05:11:29.968Z,0
2017-10-14T05:12:29.925Z,0
2017-10-14T05:13:29.889Z,0
2017-10-14T05:14:29.865Z,0
2017-10-14T05:15:29.879Z,0
2017-10-14T05:16:29.842Z,0
2017-10-14T05:17:29.804Z,0
2017-10-14T05:18:29.481Z,4
2017-10-14T05:19:29.758Z,4
2017-10-14T05:20:29.422Z,0
2017-10-14T05:21:29.722Z,4
2017-10-14T05:22:29.693Z,4
2017-10-14T05:23:29.672Z,4
2017-10-14T05:24:29.655Z,4
2017-10-14T05:25:29.623Z,4
2017-10-14T05:26:29.604Z,8
2017-10-14T05:27:29.264Z,8
2017-10-14T05:28:29.585Z,8
2017-10-14T05:29:29.545Z,12
2017-10-14T05:30:29.509Z,16
2017-10-14T05:31:29.180Z,20
2017-10-14T05:32:29.486Z,20
2017-10-14T05:33:29.455Z,24
2017-10-14T05:34:29.438Z,32
2017-10-14T05:35:29.407Z,40
2017-10-14T05:36:29.386Z,44
2017-10-14T05:37:29.039Z,56
2017-10-14T05:38:29.357Z,64
2017-10-14T05:39:29.343Z,76
2017-10-14T05:40:29.299Z,88
2017-10-14T05:41:29.270Z,100
2017-10-14T05:42:28.937Z,112
2017-10-14T05:43:29.227Z,124
2017-10-14T05:44:29.207Z,140
2017-10-14T05:45:29.183Z,160
2017-10-14T05:46:29.183Z,176
2017-10-14T05:47:29.144Z,196
2017-10-14T05:48:29.119Z,212
2017-10-14T05:49:29.100Z,232
2017-10-14T05:50:28.757Z,256
2017-10-14T05:51:28.752Z,280
2017-10-14T05:52:29.024Z,308
2017-10-14T05:53:28.363Z,332
2017-10-14T05:54:28.984Z,364
2017-10-14T05:55:28.963Z,392
2017-10-14T05:56:28.928Z,420
2017-10-14T05:57:28.918Z,456
2017-10-14T05:58:28.905Z,488
2017-10-14T05:59:28.881Z,520
2017-10-14T06:00:28.855Z,556
2017-10-14T06:01:28.829Z,596
2017-10-14T06:02:28.812Z,636
2017-10-14T06:03:28.795Z,676
2017-10-14T06:04:28.780Z,716
2017-10-14T06:05:28.761Z,760
2017-10-14T06:06:28.722Z,808
2017-10-14T06:07:28.701Z,848
2017-10-14T06:08:28.677Z,892
2017-10-14T06:09:28.003Z,940
2017-10-14T06:10:28.632Z,992
2017-10-14T06:11:28.601Z,1056
2017-10-14T06:12:28.570Z,1104
2017-10-14T06:13:28.573Z,1160
2017-10-14T06:14:28.538Z,1208
2017-10-14T06:15:28.204Z,1272
2017-10-14T06:16:28.496Z,1332
2017-10-14T06:17:28.473Z,1384
2017-10-14T06:18:28.156Z,1436
2017-10-14T06:19:28.431Z,1496
2017-10-14T06:20:28.094Z,1568
2017-10-14T06:21:28.398Z,1648
2017-10-14T06:22:28.376Z,1736
2017-10-14T06:23:28.020Z,1844
2017-10-14T06:24:28.325Z,1920
2017-10-14T06:25:28.302Z,2028
2017-10-14T06:26:28.277Z,2124
2017-10-14T06:27:28.259Z,2208
2017-10-14T06:28:27.912Z,2316
2017-10-14T06:29:28.229Z,2392
2017-10-14T06:30:28.186Z,2500
2017-10-14T06:31:28.167Z,2596
2017-10-14T06:32:28.137Z,2704
2017-10-14T06:33:28.129Z,2848
2017-10-14T06:34:28.100Z,2960
2017-10-14T06:35:28.080Z,3060
2017-10-14T06:36:28.054Z,3088
2017-10-14T06:37:28.030Z,3148
2017-10-14T06:38:28.020Z,3280
2017-10-14T06:39:28.009Z,3428
2017-10-14T06:40:27.970Z,3672
2017-10-14T06:41:27.944Z,3780
2017-10-14T06:42:27.931Z,3900
2017-10-14T06:43:27.914Z,3960
2017-10-14T06:44:27.883Z,4016
2017-10-14T06:45:27.858Z,4084
2017-10-14T06:46:27.844Z,4300
2017-10-14T06:47:27.819Z,4556
2017-10-14T06:48:27.802Z,4768
2017-10-14T06:49:27.770Z,5048
2017-10-14T06:50:27.444Z,5360
2017-10-14T06:51:27.731Z,5864
2017-10-14T06:52:27.707Z,6204
2017-10-14T06:53:27.711Z,6680
2017-10-14T06:54:27.663Z,6920
2017-10-14T06:55:27.644Z,7048
2017-10-14T06:56:27.630Z,7204
2017-10-14T06:57:27.609Z,7540
2017-10-14T06:58:27.580Z,7736
2017-10-14T06:59:27.594Z,7648
2017-10-14T07:00:27.221Z,7772
2017-10-14T07:01:27.538Z,8040
2017-10-14T07:02:27.499Z,8220
2017-10-14T07:03:27.180Z,8180
2017-10-14T07:04:27.457Z,8400
2017-10-14T07:05:27.438Z,8380
2017-10-14T07:06:27.105Z,8520
2017-10-14T07:07:27.415Z,8708
2017-10-14T07:08:27.383Z,8748
2017-10-14T07:09:27.356Z,8868
2017-10-14T07:10:27.023Z,8912
2017-10-14T07:11:27.312Z,9288
2017-10-14T07:12:27.300Z,9244
2017-10-14T07:13:27.299Z,9568
2017-10-14T07:14:27.266Z,9712
2017-10-14T07:15:27.255Z,9772
2017-10-14T07:16:27.228Z,9968
2017-10-14T07:17:27.214Z,10452
2017-10-14T07:18:27.193Z,10480
2017-10-14T07:19:27.194Z,10380
2017-10-14T07:20:27.173Z,10664
2017-10-14T07:21:27.145Z,10920
2017-10-14T07:22:27.126Z,10872
2017-10-14T07:23:27.137Z,10996
2017-10-14T07:24:26.787Z,11120
2017-10-14T07:25:27.074Z,11280
2017-10-14T07:26:27.056Z,11508
2017-10-14T07:27:27.036Z,11592
2017-10-14T07:28:27.019Z,11832
2017-10-14T07:29:26.692Z,11984
2017-10-14T07:30:26.993Z,12048
2017-10-14T07:31:26.961Z,12232
2017-10-14T07:32:26.956Z,12372
2017-10-14T07:33:26.944Z,12520
2017-10-14T07:34:26.922Z,12528
2017-10-14T07:35:26.919Z,12744
2017-10-14T07:36:26.886Z,12812
2017-10-14T07:37:26.902Z,12944
2017-10-14T07:38:26.877Z,13176
2017-10-14T07:39:26.856Z,13428
2017-10-14T07:40:26.829Z,13616
2017-10-14T07:41:26.814Z,13388
2017-10-14T07:42:26.809Z,13684
2017-10-14T07:43:26.462Z,12900
2017-10-14T07:44:26.455Z,11732
2017-10-14T07:45:26.751Z,11572
2017-10-14T07:46:26.411Z,11812
2017-10-14T07:47:26.718Z,12136
2017-10-14T07:48:26.700Z,12216
2017-10-14T07:49:26.372Z,12344
2017-10-14T07:50:26.689Z,12864
2017-10-14T07:51:26.666Z,12844
2017-10-14T07:52:26.664Z,12632
2017-10-14T07:53:26.638Z,13392
2017-10-14T07:54:26.623Z,12992
2017-10-14T07:55:25.960Z,12420
2017-10-14T07:56:26.604Z,13040
2017-10-14T07:57:26.582Z,13096
2017-10-14T07:58:26.577Z,12736
2017-10-14T07:59:26.549Z,13136
2017-10-14T08:00:26.540Z,13244
2017-10-14T08:01:26.522Z,13448
2017-10-14T08:02:26.523Z,13816
2017-10-14T08:03:26.492Z,14068
2017-10-14T08:04:26.476Z,14940
2017-10-14T08:05:26.474Z,15496
2017-10-14T08:06:26.457Z,14680
2017-10-14T08:07:26.429Z,14748
2017-10-14T08:08:26.447Z,14160
2017-10-14T08:09:26.468Z,14552
2017-10-14T08:10:26.076Z,15136
2017-10-14T08:11:26.378Z,14288
2017-10-14T08:12:26.381Z,14656
2017-10-14T08:13:26.359Z,15232
2017-10-14T08:14:26.359Z,15456
2017-10-14T08:15:26.317Z,16160
2017-10-14T08:16:26.313Z,16224
2017-10-14T08:17:26.288Z,16384
2017-10-14T08:18:26.292Z,16832
2017-10-14T08:19:25.938Z,16480
2017-10-14T08:20:25.611Z,16032
2017-10-14T08:21:25.928Z,16096
2017-10-14T08:22:26.229Z,16608
2017-10-14T08:23:26.210Z,16672
2017-10-14T08:24:26.199Z,15968
2017-10-14T08:25:26.187Z,15840
2017-10-14T08:26:26.182Z,15808
2017-10-14T08:27:26.159Z,16384
2017-10-14T08:28:26.156Z,15968
2017-10-14T08:29:25.814Z,16256
2017-10-14T08:30:26.119Z,16448
2017-10-14T08:31:26.109Z,17248
2017-10-14T08:32:26.111Z,16992
2017-10-14T08:33:26.088Z,17056
2017-10-14T08:34:26.064Z,17664
2017-10-14T08:35:26.065Z,18816
2017-10-14T08:36:26.072Z,19744
2017-10-14T08:37:26.039Z,20192
2017-10-14T08:38:26.024Z,19776
2017-10-14T08:39:25.694Z,19872
2017-10-14T08:40:25.989Z,20864
2017-10-14T08:41:25.976Z,19328
2017-10-14T08:42:25.970Z,11596
2017-10-14T08:43:25.949Z,6896
2017-10-14T08:44:25.950Z,6764
2017-10-14T08:45:25.930Z,6768
2017-10-14T08:46:25.916Z,6880
2017-10-14T08:47:25.580Z,6888
2017-10-14T08:48:25.566Z,6840
2017-10-14T08:49:25.891Z,6744
2017-10-14T08:50:25.869Z,6796
2017-10-14T08:51:25.842Z,6740
2017-10-14T08:52:25.829Z,6732
2017-10-14T08:53:25.814Z,6740
2017-10-14T08:54:25.799Z,7236
2017-10-14T08:55:25.795Z,8336
2017-10-14T08:56:25.758Z,8512
2017-10-14T08:57:25.748Z,8684
2017-10-14T08:58:25.745Z,9272
2017-10-14T08:59:25.713Z,9524
2017-10-14T09:00:25.704Z,9108
2017-10-14T09:01:25.685Z,7852
2017-10-14T09:02:25.683Z,6520
2017-10-14T09:03:25.656Z,6392
2017-10-14T09:04:25.321Z,6432
2017-10-14T09:05:25.621Z,6468
2017-10-14T09:06:25.294Z,6452
2017-10-14T09:07:25.274Z,6344
2017-10-14T09:08:25.248Z,6280
2017-10-14T09:09:25.244Z,6232
2017-10-14T09:10:25.208Z,6256
2017-10-14T09:11:25.513Z,6144
2017-10-14T09:12:25.500Z,6060
2017-10-14T09:13:25.479Z,5948
2017-10-14T09:14:25.461Z,5792
2017-10-14T09:15:25.121Z,5740
2017-10-14T09:16:25.435Z,5892
2017-10-14T09:17:25.422Z,7148
2017-10-14T09:18:25.399Z,9396
2017-10-14T09:19:25.382Z,12044
2017-10-14T09:20:25.359Z,15008
2017-10-14T09:21:25.354Z,18112
2017-10-14T09:22:25.323Z,20928
2017-10-14T09:23:25.302Z,22656
2017-10-14T09:24:25.281Z,20032
2017-10-14T09:25:25.269Z,10624
2017-10-14T09:26:25.244Z,5144
2017-10-14T09:27:25.224Z,5088
2017-10-14T09:28:25.218Z,5080
2017-10-14T09:29:25.190Z,5000
2017-10-14T09:30:25.185Z,4960
2017-10-14T09:31:25.163Z,4924
2017-10-14T09:32:25.163Z,4932
2017-10-14T09:33:25.113Z,4844
2017-10-14T09:34:24.998Z,4836
2017-10-14T09:35:25.090Z,4800
2017-10-14T09:36:25.068Z,4824
2017-10-14T09:37:25.044Z,4776
2017-10-14T09:38:25.041Z,4728
2017-10-14T09:39:25.013Z,4736
2017-10-14T09:40:24.987Z,4776
2017-10-14T09:41:24.965Z,4740
2017-10-14T09:42:24.956Z,4784
2017-10-14T09:43:24.940Z,4740
2017-10-14T09:44:24.915Z,4676
2017-10-14T09:45:24.888Z,4624
2017-10-14T09:46:24.885Z,4596
2017-10-14T09:47:24.863Z,4488
2017-10-14T09:48:24.836Z,4524
2017-10-14T09:49:24.831Z,4600
2017-10-14T09:50:24.794Z,4540
2017-10-14T09:51:24.455Z,4480
2017-10-14T09:52:24.776Z,4432
2017-10-14T09:53:24.751Z,4464
2017-10-14T09:54:24.414Z,4472
2017-10-14T09:55:24.718Z,4372
2017-10-14T09:56:24.690Z,4284
2017-10-14T09:57:24.668Z,4296
2017-10-14T09:58:24.351Z,4376
2017-10-14T09:59:24.645Z,4344
2017-10-14T10:00:24.612Z,4332
2017-10-14T10:01:24.265Z,4288
2017-10-14T10:02:24.600Z,4208
2017-10-14T10:03:24.561Z,4168
2017-10-14T10:04:24.566Z,4200
2017-10-14T10:05:24.530Z,4208
2017-10-14T10:06:24.499Z,4236
2017-10-14T10:07:24.469Z,4264
2017-10-14T10:08:24.457Z,4352
2017-10-14T10:09:24.439Z,4320
2017-10-14T10:10:24.444Z,4160
2017-10-14T10:11:24.410Z,4100
2017-10-14T10:12:24.068Z,4088
2017-10-14T10:13:25.077Z,4076
2017-10-14T10:14:24.345Z,4076
2017-10-14T10:15:24.355Z,4088
2017-10-14T10:16:24.302Z,4056
2017-10-14T10:17:24.284Z,4020
2017-10-14T10:18:24.284Z,4028
2017-10-14T10:19:24.255Z,4156
2017-10-14T10:20:23.588Z,4332
2017-10-14T10:21:24.228Z,4168
2017-10-14T10:22:24.182Z,4116
2017-10-14T10:23:24.176Z,4032
2017-10-14T10:24:24.162Z,4116
2017-10-14T10:25:24.128Z,4060
2017-10-14T10:26:24.817Z,4024
2017-10-14T10:27:24.100Z,4036
2017-10-14T10:28:24.070Z,3988
2017-10-14T10:29:24.059Z,3916
2017-10-14T10:30:24.039Z,3944
2017-10-14T10:31:24.020Z,3908
2017-10-14T10:32:23.995Z,3780
2017-10-14T10:33:23.975Z,3896
2017-10-14T10:34:23.964Z,3848
2017-10-14T10:35:23.618Z,3880
2017-10-14T10:36:23.919Z,3884
2017-10-14T10:37:23.919Z,3808
2017-10-14T10:38:23.238Z,3852
2017-10-14T10:39:23.554Z,3828
2017-10-14T10:40:23.523Z,3808
2017-10-14T10:41:23.821Z,3864
2017-10-14T10:42:23.494Z,4060
2017-10-14T10:43:23.805Z,3884
2017-10-14T10:44:23.759Z,3972
2017-10-14T10:45:23.764Z,3556
2017-10-14T10:46:23.416Z,4188
2017-10-14T10:47:23.384Z,4276
2017-10-14T10:48:23.679Z,3848
2017-10-14T10:49:23.342Z,3776
2017-10-14T10:50:23.647Z,3916
2017-10-14T10:51:23.316Z,3848
2017-10-14T10:52:23.605Z,3828
2017-10-14T10:53:23.586Z,3808
2017-10-14T10:54:23.573Z,3888
2017-10-14T10:55:23.242Z,3832
2017-10-14T10:56:23.529Z,3864
2017-10-14T10:57:23.509Z,3976
2017-10-14T10:58:23.493Z,3836
2017-10-14T10:59:23.170Z,3956
2017-10-14T11:00:23.450Z,3788
2017-10-14T11:01:23.441Z,3808
2017-10-14T11:02:23.107Z,3868
2017-10-14T11:03:23.087Z,4036
2017-10-14T11:04:23.377Z,4204
2017-10-14T11:05:23.366Z,4356
2017-10-14T11:06:23.341Z,3580
2017-10-14T11:07:23.349Z,3872
2017-10-14T11:08:22.989Z,3864
2017-10-14T11:09:23.276Z,4340
2017-10-14T11:10:23.266Z,5020
2017-10-14T11:11:23.249Z,3804
2017-10-14T11:12:23.232Z,3844
2017-10-14T11:13:23.213Z,3940
2017-10-14T11:14:23.184Z,4464
2017-10-14T11:15:23.175Z,4024
2017-10-14T11:16:23.164Z,7140
2017-10-14T11:17:23.144Z,7708
2017-10-14T11:18:23.104Z,5048
2017-10-14T11:19:23.090Z,6296
2017-10-14T11:20:23.065Z,4444
2017-10-14T11:21:23.063Z,6108
2017-10-14T11:22:23.030Z,5744
2017-10-14T11:23:23.013Z,4136
2017-10-14T11:24:22.352Z,6312
2017-10-14T11:25:22.974Z,4852
2017-10-14T11:26:22.641Z,3952
2017-10-14T11:27:22.938Z,3740
2017-10-14T11:28:22.594Z,6428
2017-10-14T11:29:22.933Z,7928
2017-10-14T11:30:22.896Z,4820
2017-10-14T11:31:22.855Z,4048
2017-10-14T11:32:22.524Z,4064
2017-10-14T11:33:22.829Z,3860
2017-10-14T11:34:22.491Z,3688
2017-10-14T11:35:22.790Z,6436
2017-10-14T11:36:22.768Z,5244
2017-10-14T11:37:22.431Z,6332
2017-10-14T11:38:22.736Z,5648
2017-10-14T11:39:22.714Z,4508
2017-10-14T11:40:22.701Z,4704
2017-10-14T11:41:22.675Z,8392
2017-10-14T11:42:22.342Z,6688
2017-10-14T11:43:22.645Z,5004
2017-10-14T11:44:22.620Z,8512
2017-10-14T11:45:22.600Z,7076
2017-10-14T11:46:22.579Z,5396
2017-10-14T11:47:22.568Z,7024
2017-10-14T11:48:22.223Z,6648
2017-10-14T11:49:22.525Z,4628
2017-10-14T11:50:22.537Z,5540
2017-10-14T11:51:22.481Z,5156
2017-10-14T11:52:22.146Z,6764
2017-10-14T11:53:22.440Z,4576
2017-10-14T11:54:22.428Z,4092
2017-10-14T11:55:22.406Z,6856
2017-10-14T11:56:22.396Z,7312
2017-10-14T11:57:22.384Z,4352
2017-10-14T11:58:22.373Z,4128
2017-10-14T11:59:22.335Z,6548
2017-10-14T12:00:22.318Z,4476
2017-10-14T12:01:22.292Z,3764
2017-10-14T12:02:21.965Z,3564
2017-10-14T12:03:22.260Z,3788
2017-10-14T12:04:21.931Z,3880
2017-10-14T12:05:22.253Z,4052
2017-10-14T12:06:22.198Z,4572
2017-10-14T12:07:22.187Z,4936
2017-10-14T12:08:22.172Z,5716
2017-10-14T12:09:21.816Z,4304
2017-10-14T12:10:22.131Z,3484
2017-10-14T12:11:22.122Z,3672
2017-10-14T12:12:22.125Z,4324
2017-10-14T12:13:22.118Z,6392
2017-10-14T12:14:21.417Z,5260
2017-10-14T12:15:22.026Z,4744
2017-10-14T12:16:22.020Z,4432
2017-10-14T12:17:21.992Z,4552
2017-10-14T12:18:21.981Z,3584
2017-10-14T12:19:21.953Z,6948
2017-10-14T12:20:21.938Z,9884
2017-10-14T12:21:21.915Z,6464
2017-10-14T12:22:21.917Z,5356
2017-10-14T12:23:21.884Z,5744
2017-10-14T12:24:21.861Z,4500
2017-10-14T12:25:21.848Z,5988
2017-10-14T12:26:21.816Z,5496
2017-10-14T12:27:21.813Z,6268
2017-10-14T12:28:21.789Z,6148
2017-10-14T12:29:21.767Z,7144
2017-10-14T12:30:21.430Z,4984
2017-10-14T12:31:21.737Z,3972
2017-10-14T12:32:21.733Z,3380
2017-10-14T12:33:21.701Z,3416
2017-10-14T12:34:21.671Z,3236
2017-10-14T12:35:21.660Z,3952
2017-10-14T12:36:21.642Z,3460
2017-10-14T12:37:21.622Z,3172
2017-10-14T12:38:21.611Z,4068
2017-10-14T12:39:21.587Z,3476
2017-10-14T12:40:21.564Z,3716
2017-10-14T12:41:21.228Z,3584
2017-10-14T12:42:21.537Z,4088
2017-10-14T12:43:21.189Z,3388
2017-10-14T12:44:21.493Z,3492
2017-10-14T12:45:21.483Z,4264
2017-10-14T12:46:21.131Z,3364
2017-10-14T12:47:21.426Z,3112
2017-10-14T12:48:21.421Z,2776
2017-10-14T12:49:20.777Z,2952
2017-10-14T12:50:21.386Z,3552
2017-10-14T12:51:21.377Z,3116
2017-10-14T12:52:21.335Z,3176
2017-10-14T12:53:21.335Z,3108
2017-10-14T12:54:21.300Z,3556
2017-10-14T12:55:21.286Z,3132
2017-10-14T12:56:21.268Z,3132
2017-10-14T12:57:21.236Z,2944
2017-10-14T12:58:21.219Z,4240
2017-10-14T12:59:21.204Z,4208
2017-10-14T13:00:20.862Z,3252
2017-10-14T13:01:21.172Z,3556
2017-10-14T13:02:21.140Z,3564
2017-10-14T13:03:21.134Z,3868
2017-10-14T13:04:21.118Z,4188
2017-10-14T13:05:21.091Z,3260
2017-10-14T13:06:20.746Z,4216
2017-10-14T13:07:20.733Z,3664
2017-10-14T13:08:21.069Z,3368
2017-10-14T13:09:21.014Z,3364
2017-10-14T13:10:20.989Z,3640
2017-10-14T13:11:20.980Z,3124
2017-10-14T13:12:20.963Z,2956
2017-10-14T13:13:20.939Z,2888
2017-10-14T13:14:20.600Z,2840
2017-10-14T13:15:20.586Z,2824
2017-10-14T13:16:20.552Z,2832
2017-10-14T13:17:20.877Z,2940
2017-10-14T13:18:20.840Z,2896
2017-10-14T13:19:20.829Z,2852
2017-10-14T13:20:20.800Z,2856
2017-10-14T13:21:20.805Z,2872
2017-10-14T13:22:20.782Z,2824
2017-10-14T13:23:20.107Z,2776
2017-10-14T13:24:20.590Z,2740
2017-10-14T13:25:20.275Z,2880
2017-10-14T13:26:20.290Z,2780
2017-10-14T13:27:20.702Z,2756
2017-10-14T13:28:20.111Z,2876
2017-10-14T13:29:20.032Z,4108
2017-10-14T13:30:19.764Z,3244
2017-10-14T13:31:20.160Z,3080
2017-10-14T13:32:20.083Z,2996
2017-10-14T13:33:19.764Z,2860
2017-10-14T13:34:20.339Z,2844
2017-10-14T13:35:20.196Z,2932
2017-10-14T13:36:19.895Z,2844
2017-10-14T13:37:19.846Z,2788
2017-10-14T13:38:19.892Z,2748
2017-10-14T13:39:20.133Z,2720
2017-10-14T13:40:19.802Z,3536
2017-10-14T13:41:20.096Z,3244
2017-10-14T13:42:20.406Z,2880
2017-10-14T13:43:20.370Z,2688
2017-10-14T13:44:20.390Z,2652
2017-10-14T13:45:20.005Z,2632
2017-10-14T13:46:19.995Z,2412
2017-10-14T13:47:19.975Z,2416
2017-10-14T13:48:20.263Z,2648
2017-10-14T13:49:20.248Z,2628
2017-10-14T13:50:20.271Z,2668